Time;durP1;ratioP1;P1;durP2;ratioP2;P2;SDS_P1;SDS_P2;PMS_P1;PMS_P2;Temp;Humidity;BMP_temperature;BMP_pressure;BME280_temperature;BME280_humidity;BME280_pressure;Samples;Min_cycle;Max_cycle;Signal;HPM_P1;HPM_P2
2021/07/20 00:00:31;;;;;;;;;11.75;11.75;;;;;26.27;49.40;101439.50;6216679;22;45246;-72
2021/07/20 00:03:07;;;;;;;;;10.75;10.75;;;;;26.23;49.12;101438.06;6188995;22;45337;-72
2021/07/20 00:05:35;;;;;;;;;11.75;11.50;;;;;26.21;48.66;101440.03;6216686;22;45326;-72
2021/07/20 00:08:09;;;;;;;;;13.25;13.00;;;;;26.17;49.25;101452.28;6216594;22;45586;-72
2021/07/20 00:10:52;;;;;;;;;12.75;12.25;;;;;26.18;49.04;101452.13;6216587;22;45364;-72
2021/07/20 00:13:21;;;;;;;;;13.75;13.50;;;;;25.86;49.60;101405.66;6216403;22;45350;-72
2021/07/20 00:15:58;;;;;;;;;11.25;10.75;;;;;25.93;49.41;101426.03;6216698;22;45181;-72
2021/07/20 00:18:57;;;;;;;;;12.75;11.00;;;;;26.17;49.56;101461.34;6216212;22;46426;-72
2021/07/20 00:21:52;;;;;;;;;;;;;;;;;;;;;
2021/07/20 00:24:18;;;;;;;;;14.50;12.00;;;;;25.97;49.44;101434.84;6213569;22;69928;-72
2021/07/20 00:26:44;;;;;;;;;12.00;10.75;;;;;26.07;49.40;101447.59;6216634;22;45281;-72
2021/07/20 00:29:12;;;;;;;;;12.00;11.25;;;;;26.08;49.35;101453.94;6214760;22;45405;-72
2021/07/20 00:31:47;;;;;;;;;;;;;;;;;;;;;
2021/07/20 00:34:25;;;;;;;;;;;;;;;;;;;;;
2021/07/20 00:36:58;;;;;;;;;12.00;12.00;;;;;26.10;49.97;101456.56;6215511;22;71438;-71
2021/07/20 00:39:31;;;;;;;;;12.00;12.00;;;;;25.88;49.74;101420.94;6216640;22;45740;-72
2021/07/20 00:42:20;;;;;;;;;13.75;13.25;;;;;26.03;49.67;101442.53;6188926;22;45390;-72
2021/07/20 00:44:45;;;;;;;;;13.25;13.25;;;;;25.65;49.41;101387.38;6215811;22;45355;-72
2021/07/20 00:47:39;;;;;;;;;13.25;11.50;;;;;25.85;49.79;101418.47;6216654;22;45252;-72
2021/07/20 00:50:14;;;;;;;;;8.00;8.00;;;;;25.81;49.82;101418.88;6188942;22;47418;-72
2021/07/20 00:52:42;;;;;;;;;10.75;10.75;;;;;25.96;49.84;101444.94;6216235;22;45378;-72
2021/07/20 00:55:10;;;;;;;;;12.75;12.50;;;;;25.84;49.28;101433.16;6216960;22;45173;-72
2021/07/20 00:57:39;;;;;;;;;14.25;12.50;;;;;25.67;49.81;101403.66;6216192;22;45471;-72
2021/07/20 01:00:11;;;;;;;;;11.75;10.50;;;;;25.70;49.52;101414.34;6216385;22;46028;-72
2021/07/20 01:02:44;;;;;;;;;9.25;9.25;;;;;25.63;49.75;101407.66;6216086;22;45203;-72
2021/07/20 01:05:21;;;;;;;;;12.25;11.00;;;;;25.55;49.99;101394.66;6216499;22;45244;-72
2021/07/20 01:08:04;;;;;;;;;;;;;;;;;;;;;
2021/07/20 01:10:42;;;;;;;;;9.00;9.00;;;;;25.67;49.46;101422.78;6213183;22;75615;-72
2021/07/20 01:13:43;;;;;;;;;15.50;14.50;;;;;25.65;50.00;101424.81;6215350;22;45499;-72
2021/07/20 01:16:10;;;;;;;;;10.75;10.75;;;;;25.56;49.83;101415.53;6217635;22;45429;-72
2021/07/20 01:18:38;;;;;;;;;13.00;11.00;;;;;25.55;49.92;101413.78;6217535;22;45276;-72
2021/07/20 01:21:15;;;;;;;;;15.00;12.00;;;;;25.77;49.77;101451.09;6217279;22;46329;-72
2021/07/20 01:23:45;;;;;;;;;14.00;12.00;;;;;25.51;49.38;101415.91;6217328;22;45339;-72
2021/07/20 01:26:11;;;;;;;;;12.00;10.50;;;;;25.57;49.91;101436.38;6190241;22;45245;-71
2021/07/20 01:29:02;;;;;;;;;9.00;9.00;;;;;25.54;49.94;101442.09;6217503;22;45493;-71
2021/07/20 01:31:33;;;;;;;;;10.50;9.50;;;;;25.33;49.92;101412.88;6217451;22;46087;-71
2021/07/20 01:34:02;;;;;;;;;11.50;10.50;;;;;25.60;50.25;101460.72;6217431;22;45460;-72
2021/07/20 01:36:35;;;;;;;;;9.75;9.75;;;;;25.39;50.21;101432.47;6218139;22;45421;-72
2021/07/20 01:39:17;;;;;;;;;;;;;;;;;;;;;
2021/07/20 01:41:58;;;;;;;;;;;;;;;;;;;;;
2021/07/20 01:44:39;;;;;;;;;;;;;;;;;;;;;
2021/07/20 01:47:06;;;;;;;;;13.75;11.50;;;;;25.21;50.07;101413.00;6216977;22;67670;-72
2021/07/20 01:49:45;;;;;;;;;;;;;;;;;;;;;
2021/07/20 01:52:12;;;;;;;;;11.00;10.00;;;;;25.37;50.11;101450.88;6215983;22;75126;-72
2021/07/20 01:54:45;;;;;;;;;13.00;13.00;;;;;25.29;50.39;101448.78;6190382;22;45343;-72
2021/07/20 01:57:14;;;;;;;;;14.75;12.75;;;;;25.03;50.66;101407.22;6217636;22;45188;-72
2021/07/20 01:59:43;;;;;;;;;10.75;10.75;;;;;25.36;50.44;101463.69;6217168;22;45802;-72
2021/07/20 02:02:26;;;;;;;;;15.00;14.25;;;;;25.05;50.27;101413.44;6190022;22;46464;-72
2021/07/20 02:10:23;;;;;;;;;11.25;10.50;;;;;24.93;50.67;101402.50;6217210;22;45287;-72
2021/07/20 02:12:59;;;;;;;;;15.50;14.25;;;;;25.11;50.60;101435.63;6216846;22;45266;-72
2021/07/20 02:15:39;;;;;;;;;;;;;;;;;;;;;
2021/07/20 02:18:14;;;;;;;;;10.50;10.50;;;;;24.96;50.71;101417.78;6215521;22;69216;-72
2021/07/20 02:20:42;;;;;;;;;14.50;13.75;;;;;24.90;50.55;101412.84;6189594;22;45516;-72
2021/07/20 02:23:10;;;;;;;;;13.75;13.75;;;;;24.99;50.46;101427.59;6217014;22;45667;-72
2021/07/20 02:25:41;;;;;;;;;12.00;12.00;;;;;24.95;50.43;101429.69;6217524;22;45141;-72
2021/07/20 02:28:10;;;;;;;;;14.50;12.00;;;;;25.08;50.46;101446.81;6217398;22;45252;-72
2021/07/20 02:30:40;;;;;;;;;14.25;14.25;;;;;24.92;50.62;101435.41;6217451;22;45152;-72
2021/07/20 02:33:09;;;;;;;;;13.50;13.50;;;;;24.90;50.16;101429.22;6216886;22;46365;-72
2021/07/20 02:35:38;;;;;;;;;14.25;13.50;;;;;24.84;50.25;101419.69;6217454;22;45332;-72
2021/07/20 02:38:14;;;;;;;;;13.00;11.75;;;;;24.87;50.66;101422.13;6216995;22;45360;-72
2021/07/20 02:40:53;;;;;;;;;;;;;;;;;;;;;
2021/07/20 02:43:40;;;;;;;;;16.25;12.75;;;;;24.64;50.87;101394.00;6213408;22;75899;-72
2021/07/20 02:46:11;;;;;;;;;17.00;16.00;;;;;24.83;50.82;101428.84;6215243;22;45274;-71
2021/07/20 02:48:52;;;;;;;;;;;;;;;;;;;;;
2021/07/20 02:51:25;;;;;;;;;16.25;13.50;;;;;24.59;50.86;101407.13;6216106;22;71983;-71
2021/07/20 02:54:02;;;;;;;;;12.75;12.75;;;;;24.49;50.56;101397.94;6189609;22;46667;-71
2021/07/20 02:56:45;;;;;;;;;13.25;13.25;;;;;24.59;50.92;101415.31;6217161;22;45155;-71
2021/07/20 02:59:14;;;;;;;;;15.00;13.75;;;;;24.67;50.65;101431.09;6217627;22;45386;-71
2021/07/20 03:01:44;;;;;;;;;13.50;12.50;;;;;24.66;51.16;101443.88;6217269;22;45884;-71
2021/07/20 03:04:19;;;;;;;;;16.50;14.50;;;;;24.60;51.03;101431.56;6189436;22;47972;-71
2021/07/20 03:07:23;;;;;;;;;;;;;;;;;;;;;
2021/07/20 03:09:47;;;;;;;;;15.25;15.25;;;;;24.45;50.63;101427.34;6211588;22;45292;-71
2021/07/20 03:12:30;;;;;;;;;17.50;14.25;;;;;24.46;50.73;101428.19;6189142;22;45417;-71
2021/07/20 03:15:09;;;;;;;;;;;;;;;;;;;;;
2021/07/20 03:17:47;;;;;;;;;12.25;12.25;;;;;24.26;50.27;101397.94;6214949;22;72974;-71
2021/07/20 03:20:15;;;;;;;;;18.50;15.00;;;;;24.27;50.43;101401.53;6217180;22;45260;-71
2021/07/20 03:22:59;;;;;;;;;;;;;;;;;;;;;
2021/07/20 03:25:42;;;;;;;;;;;;;;;;;;;;;
2021/07/20 03:28:09;;;;;;;;;15.50;13.50;;;;;24.41;50.30;101421.25;6215677;22;72841;-71
2021/07/20 03:30:42;;;;;;;;;14.50;13.00;;;;;24.28;50.57;101412.31;6216801;22;45296;-71
2021/07/20 03:33:31;;;;;;;;;;;;;;;;;;;;;
2021/07/20 03:36:03;;;;;;;;;12.75;12.75;;;;;24.48;50.23;101448.06;6215757;22;75284;-71
2021/07/20 03:38:32;;;;;;;;;15.25;15.25;;;;;24.52;50.51;101457.72;6217444;22;45189;-71
2021/07/20 03:41:14;;;;;;;;;;;;;;;;;;;;;
2021/07/20 03:43:52;;;;;;;;;;;;;;;;;;;;;
2021/07/20 03:46:33;;;;;;;;;11.25;10.50;;;;;24.44;50.67;101458.34;6212562;22;76245;-71
2021/07/20 03:49:12;;;;;;;;;;;;;;;;;;;;;
2021/07/20 03:51:40;;;;;;;;;12.75;12.50;;;;;24.14;49.74;101415.28;6216054;22;69116;-71
2021/07/20 03:54:17;;;;;;;;;14.25;14.00;;;;;24.37;50.63;101457.97;6216477;22;45386;-71
2021/07/20 03:57:17;;;;;;;;;15.00;12.75;;;;;24.16;50.79;101418.75;6214567;22;47165;-71
2021/07/20 03:59:49;;;;;;;;;11.00;11.00;;;;;24.16;49.77;101421.50;6210674;22;45264;-71
2021/07/20 04:02:35;;;;;;;;;;;;;;;;;;;;;
2021/07/20 04:05:21;;;;;;;;;12.25;12.25;;;;;24.22;49.93;101449.16;6192282;22;71522;-71
2021/07/20 04:08:01;;;;;;;;;15.50;14.00;;;;;24.00;49.79;101422.69;6217194;22;45386;-71
2021/07/20 04:10:40;;;;;;;;;;;;;;;;;;;;;
2021/07/20 04:13:17;;;;;;;;;17.25;16.25;;;;;23.93;50.02;101437.78;6215445;22;67339;-71
2021/07/20 04:16:03;;;;;;;;;13.50;13.50;;;;;24.11;50.34;101472.81;6217024;22;45295;-71
2021/07/20 04:18:51;;;;;;;;;14.00;13.50;;;;;23.99;50.35;101466.44;6216156;22;45574;-71
2021/07/20 04:21:31;;;;;;;;;;;;;;;;;;;;;
2021/07/20 04:24:08;;;;;;;;;;;;;;;;;;;;;
2021/07/20 04:26:37;;;;;;;;;18.25;16.25;;;;;23.88;50.42;101467.28;6215284;22;71910;-71
2021/07/20 04:29:13;;;;;;;;;;;;;;;;;;;;;
2021/07/20 04:31:41;;;;;;;;;21.75;20.75;;;;;23.81;50.14;101464.13;6212953;22;74102;-71
2021/07/20 04:34:15;;;;;;;;;21.25;19.00;;;;;23.68;50.42;101441.50;6189124;22;45411;-71
2021/07/20 04:37:00;;;;;;;;;15.75;14.50;;;;;23.58;50.75;101445.94;6216801;22;45256;-71
2021/07/20 04:39:32;;;;;;;;;18.00;16.50;;;;;23.76;50.94;101474.50;6216412;22;45380;-71
2021/07/20 04:42:18;;;;;;;;;19.50;19.00;;;;;23.78;50.92;101477.97;6217001;22;45600;-71
2021/07/20 04:44:53;;;;;;;;;;;;;;;;;;;;;
2021/07/20 04:47:27;;;;;;;;;19.25;18.75;;;;;23.49;50.53;101423.84;6216429;22;71884;-71
2021/07/20 04:50:02;;;;;;;;;17.00;16.50;;;;;23.48;51.09;101426.69;6217795;22;45505;-71
2021/07/20 04:52:31;;;;;;;;;27.00;22.25;;;;;23.34;51.15;101410.50;6217462;22;45122;-71
2021/07/20 04:55:09;;;;;;;;;;;;;;;;;;;;;
2021/07/20 04:57:47;;;;;;;;;23.00;22.00;;;;;23.64;51.37;101470.88;6216144;22;71844;-71
2021/07/20 05:00:22;;;;;;;;;20.25;19.25;;;;;23.72;50.74;101494.78;6217806;22;45368;-71
2021/07/20 05:03:01;;;;;;;;;25.00;21.75;;;;;23.44;51.14;101444.28;6215475;22;45490;-71
2021/07/20 05:05:38;;;;;;;;;25.25;22.50;;;;;23.46;51.04;101459.50;6217574;22;45343;-71
2021/07/20 05:08:14;;;;;;;;;23.00;23.00;;;;;23.42;50.67;101457.13;6190449;22;45416;-71
2021/07/20 05:10:48;;;;;;;;;23.00;22.75;;;;;23.62;50.73;101485.59;6189973;22;47418;-71
2021/07/20 05:13:42;;;;;;;;;;;;;;;;;;;;;
2021/07/20 05:16:22;;;;;;;;;25.75;24.75;;;;;23.65;51.04;101505.28;6216822;22;68360;-71
2021/07/20 05:19:04;;;;;;;;;;;;;;;;;;;;;
2021/07/20 05:21:39;;;;;;;;;23.25;22.50;;;;;23.28;50.90;101450.84;6185914;23;75096;-71
2021/07/20 05:24:16;;;;;;;;;28.75;26.50;;;;;23.55;51.00;101489.75;6185118;23;45289;-71
2021/07/20 05:26:45;;;;;;;;;23.50;20.75;;;;;23.14;51.01;101431.97;6187093;22;45209;-71
2021/07/20 05:29:20;;;;;;;;;21.75;21.25;;;;;23.15;51.36;101439.13;6187195;22;45368;-71
2021/07/20 05:31:52;;;;;;;;;25.00;22.75;;;;;23.36;51.53;101477.53;6187154;22;45409;-71
2021/07/20 05:34:37;;;;;;;;;;;;;;;;;;;;;
2021/07/20 05:37:04;;;;;;;;;22.50;22.00;;;;;23.49;51.19;101508.31;6185734;23;68865;-72
2021/07/20 05:39:32;;;;;;;;;25.75;24.50;;;;;23.58;51.30;101509.47;6187052;22;45474;-72
2021/07/20 05:41:58;;;;;;;;;24.25;24.25;;;;;23.36;51.61;101466.63;6186537;23;45385;-71
2021/07/20 05:44:26;;;;;;;;;24.25;21.25;;;;;23.53;51.79;101508.97;6187265;23;45419;-72
2021/07/20 05:46:56;;;;;;;;;27.50;26.50;;;;;23.54;51.43;101505.25;6186524;22;45165;-72
2021/07/20 05:49:21;;;;;;;;;24.25;22.00;;;;;23.52;51.39;101515.38;6186448;22;45636;-72
2021/07/20 05:51:47;;;;;;;;;28.00;26.00;;;;;23.19;51.09;101458.84;6186711;22;46329;-71
2021/07/20 05:54:15;;;;;;;;;28.25;24.50;;;;;23.28;51.33;101488.13;6186962;22;45255;-71
2021/07/20 05:56:53;;;;;;;;;28.00;26.50;;;;;23.18;51.75;101479.75;6187200;23;45265;-72
2021/07/20 05:59:19;;;;;;;;;29.00;26.00;;;;;23.21;51.55;101479.53;6186580;22;45246;-73
2021/07/20 06:01:48;;;;;;;;;24.25;23.50;;;;;23.45;51.33;101525.88;6186925;23;45338;-73
2021/07/20 06:04:17;;;;;;;;;29.00;27.50;;;;;23.28;50.99;101497.16;6184736;23;45463;-72
2021/07/20 06:06:50;;;;;;;;;27.25;24.75;;;;;23.41;51.00;101516.19;6186174;22;45249;-71
2021/07/20 06:09:19;;;;;;;;;26.50;24.25;;;;;23.43;50.93;101524.25;6186984;22;45324;-73
2021/07/20 06:11:48;;;;;;;;;29.75;27.75;;;;;23.34;50.83;101505.84;6186558;22;46437;-71
2021/07/20 06:14:17;;;;;;;;;28.00;26.75;;;;;23.47;50.71;101520.31;6186700;22;45236;-71
2021/07/20 06:16:43;;;;;;;;;31.50;27.25;;;;;23.42;50.33;101520.66;6186064;22;45259;-70
2021/07/20 06:19:10;;;;;;;;;30.75;27.75;;;;;23.20;51.32;101475.06;6210602;22;45717;-69
2021/07/20 06:21:58;;;;;;;;;;;;;;;;;;;;;
2021/07/20 06:24:45;;;;;;;;;;;;;;;;;;;;;
2021/07/20 06:28:36;;;;;;;;;;;;;;;;;;;;;
2021/07/20 06:30:51;;;;;;;;;28.75;27.75;;;;;23.20;50.20;101476.94;6171134;22;45656;-69
2021/07/20 06:33:35;;;;;;;;;;;;;;;;;;;;;
2021/07/20 06:36:23;;;;;;;;;25.75;25.00;;;;;23.56;50.40;101532.41;6215974;22;73110;-69
2021/07/20 06:39:11;;;;;;;;;;;;;;;;;;;;;
2021/07/20 06:45:20;;;;;;;;;;;;;;;;;;;;;
2021/07/20 06:51:17;;;;;;;;;;;;;;;;;;;;;
2021/07/20 07:04:48;;;;;;;;;;;;;;;;;;;;;
2021/07/20 08:03:19;;;;;;;;;26.50;24.50;;;;;23.87;48.90;101541.84;6151596;23;45228;-67
2021/07/20 08:06:04;;;;;;;;;28.50;26.75;;;;;23.84;48.24;101523.91;6154006;23;45637;-67
2021/07/20 09:31:45;;;;;;;;;20.25;20.00;;;;;25.26;47.75;101561.00;6216909;22;45135;-68
2021/07/20 09:34:49;;;;;;;;;21.75;21.25;;;;;25.31;47.50;101556.09;6245284;22;45262;-68
2021/07/20 09:37:31;;;;;;;;;23.00;19.00;;;;;25.31;47.01;101548.75;6185799;22;45228;-69
2021/07/20 09:40:10;;;;;;;;;14.25;14.25;;;;;25.38;47.60;101551.84;6248094;22;45828;-68
2021/07/20 09:42:53;;;;;;;;;23.00;22.00;;;;;25.43;47.20;101548.75;6247401;22;45232;-68
2021/07/20 09:45:24;;;;;;;;;21.75;19.50;;;;;25.42;47.26;101539.66;6248095;22;45201;-68
2021/07/20 09:47:56;;;;;;;;;17.25;16.25;;;;;25.52;47.56;101554.28;6247859;22;45295;-68
2021/07/20 09:50:25;;;;;;;;;22.00;19.00;;;;;25.56;47.25;101554.03;6247868;22;46361;-68
2021/07/20 09:52:57;;;;;;;;;23.00;20.00;;;;;25.57;46.68;101556.66;6245326;22;45981;-68
2021/07/20 09:55:40;;;;;;;;;23.75;20.25;;;;;25.54;46.97;101545.97;6247946;22;45323;-68
2021/07/20 09:58:52;;;;;;;;;18.25;18.25;;;;;25.61;46.81;101560.00;6247044;22;45275;-68
2021/07/20 10:01:31;;;;;;;;;20.00;19.25;;;;;25.61;47.08;101543.59;6245742;22;45940;-69
2021/07/20 10:04:20;;;;;;;;;26.25;24.00;;;;;25.68;48.35;101559.38;6247391;22;45188;-69
2021/07/20 10:06:48;;;;;;;;;21.00;21.00;;;;;25.78;47.37;101559.47;6247674;22;45272;-68
2021/07/20 10:09:37;;;;;;;;;19.00;16.75;;;;;25.82;47.65;101552.72;6247260;22;45253;-68
2021/07/20 10:12:19;;;;;;;;;20.75;19.75;;;;;25.86;47.26;101550.59;6247064;22;46823;-68
2021/07/20 10:15:06;;;;;;;;;24.50;22.50;;;;;25.91;47.07;101545.63;6247747;22;45233;-69
2021/07/20 10:17:37;;;;;;;;;24.50;23.25;;;;;25.94;46.98;101541.75;6247392;22;45351;-68
2021/07/20 10:20:11;;;;;;;;;21.50;19.50;;;;;25.98;46.24;101543.28;6247340;22;45324;-68
2021/07/20 10:22:57;;;;;;;;;22.00;20.25;;;;;26.03;45.97;101546.50;6246680;22;46217;-68
2021/07/20 10:25:42;;;;;;;;;22.50;19.50;;;;;26.01;45.69;101538.41;6247819;22;45597;-68
2021/07/20 10:28:15;;;;;;;;;20.50;18.50;;;;;26.07;46.19;101537.88;6247386;22;45286;-68
2021/07/20 10:30:49;;;;;;;;;24.75;21.25;;;;;26.10;46.12;101547.69;6247109;22;45308;-69
2021/07/20 10:33:23;;;;;;;;;22.75;19.75;;;;;26.12;45.26;101540.22;6247128;22;45406;-69
2021/07/20 10:35:51;;;;;;;;;22.50;19.50;;;;;26.12;45.20;101531.16;6247665;22;45243;-69
2021/07/20 10:38:25;;;;;;;;;22.25;20.75;;;;;26.11;45.22;101527.56;6247495;22;45346;-69
2021/07/20 10:48:37;;;;;;;;;22.25;21.50;;;;;26.14;45.19;101504.53;6177388;23;45547;-69
2021/07/20 10:51:41;;;;;;;;;;;;;;;;;;;;;
2021/07/20 10:58:30;;;;;;;;;;;;;;;;;;;;;
2021/07/20 11:17:04;;;;;;;;;26.75;25.00;;;;;26.23;45.02;101441.66;6185891;23;45490;-72
2021/07/20 11:19:35;;;;;;;;;23.50;21.00;;;;;26.46;45.91;101474.31;6154029;23;45446;-71
2021/07/20 11:22:03;;;;;;;;;25.50;25.00;;;;;26.42;44.47;101475.59;6181014;23;45491;-71
2021/07/20 11:24:29;;;;;;;;;20.75;20.00;;;;;26.31;44.59;101451.03;6179936;23;45667;-71
2021/07/20 11:26:57;;;;;;;;;22.25;20.75;;;;;26.68;44.71;101511.66;6179836;23;45661;-71
2021/07/20 11:29:23;;;;;;;;;22.50;20.00;;;;;26.30;45.04;101441.13;6181392;23;45887;-71
2021/07/20 11:31:55;;;;;;;;;28.25;25.50;;;;;26.56;44.85;101475.25;6180938;23;46248;-71
2021/07/20 11:34:28;;;;;;;;;23.00;22.50;;;;;26.75;44.63;101501.03;6181454;23;45912;-70
2021/07/20 11:36:57;;;;;;;;;24.00;24.00;;;;;26.56;44.71;101460.69;6181839;23;45422;-70
2021/07/20 11:39:28;;;;;;;;;18.75;18.75;;;;;26.59;45.11;101458.53;6154630;23;45445;-71
2021/07/20 11:42:21;;;;;;;;;26.25;22.00;;;;;26.88;44.29;101498.94;6181308;23;45420;-72
2021/07/20 11:45:01;;;;;;;;;22.25;20.50;;;;;26.91;44.42;101495.03;6181652;23;45483;-71
2021/07/20 11:47:34;;;;;;;;;26.50;26.50;;;;;26.75;44.56;101466.28;6181969;23;45409;-71
2021/07/20 11:49:59;;;;;;;;;27.25;22.50;;;;;26.95;44.26;101494.63;6154144;23;45547;-71
2021/07/20 11:53:10;;;;;;;;;25.75;23.75;;;;;26.79;43.88;101464.13;6181145;23;46127;-71
2021/07/20 11:55:39;;;;;;;;;22.75;21.25;;;;;26.87;44.04;101475.28;6093880;23;45522;-70
2021/07/20 11:58:26;;;;;;;;;28.75;22.00;;;;;27.01;44.02;101492.34;6147042;23;45330;-70
2021/07/20 12:01:43;;;;;;;;;24.00;23.50;;;;;27.03;44.22;101495.78;6185933;23;45381;-70
2021/07/20 12:04:29;;;;;;;;;22.75;21.25;;;;;26.88;43.54;101471.53;6183925;23;47053;-70
2021/07/20 12:07:01;;;;;;;;;20.00;18.50;;;;;27.10;43.46;101488.78;6158772;23;46145;-70
2021/07/20 12:09:33;;;;;;;;;22.00;20.50;;;;;27.09;42.86;101481.56;6185879;23;45309;-70
2021/07/20 12:12:02;;;;;;;;;22.00;19.50;;;;;26.94;43.39;101454.53;6158507;23;45396;-70
2021/07/20 12:14:29;;;;;;;;;19.25;19.25;;;;;26.95;43.79;101441.72;6185708;23;46121;-70
2021/07/20 12:17:05;;;;;;;;;26.75;22.75;;;;;26.91;43.95;101452.06;6158701;23;45564;-70
2021/07/20 12:19:40;;;;;;;;;22.00;22.00;;;;;26.78;43.32;101422.19;6186398;23;45408;-70
2021/07/20 12:22:07;;;;;;;;;26.75;23.00;;;;;27.10;43.44;101455.91;6185905;23;45463;-70
2021/07/20 12:24:37;;;;;;;;;23.75;21.75;;;;;26.84;42.93;101418.03;6186127;23;46522;-70
2021/07/20 12:27:16;;;;;;;;;15.25;15.25;;;;;26.96;43.40;101433.38;6185728;23;45498;-70
2021/07/20 12:30:04;;;;;;;;;21.50;20.25;;;;;27.07;43.03;101443.31;6159264;23;45283;-70
2021/07/20 12:32:34;;;;;;;;;23.25;21.00;;;;;27.25;43.04;101462.69;6184822;23;45489;-70
2021/07/20 12:35:03;;;;;;;;;22.25;21.25;;;;;27.28;42.26;101476.13;6159022;23;47139;-70
2021/07/20 12:37:39;;;;;;;;;;;;;;;;;;;;;
2021/07/20 12:40:15;;;;;;;;;15.00;15.00;;;;;27.16;42.12;101447.97;6184856;23;69406;-70
2021/07/20 12:42:45;;;;;;;;;18.00;16.25;;;;;26.94;42.00;101398.88;6185185;23;46038;-70
2021/07/20 12:45:16;;;;;;;;;20.25;19.00;;;;;26.96;42.09;101397.75;6158706;23;46606;-70
2021/07/20 12:47:46;;;;;;;;;20.00;20.00;;;;;27.21;41.95;101428.34;6158810;23;45374;-70
2021/07/20 12:50:28;;;;;;;;;;;;;;;;;;;;;
2021/07/20 12:53:07;;;;;;;;;;;;;;;;;;;;;
2021/07/20 12:55:47;;;;;;;;;16.50;16.50;;;;;27.53;41.90;101465.63;6184794;23;75657;-70
2021/07/20 12:58:27;;;;;;;;;14.50;14.50;;;;;27.32;41.69;101430.13;6184639;23;45399;-70
2021/07/20 13:00:53;;;;;;;;;15.75;15.75;;;;;27.51;41.19;101462.19;6185948;23;45272;-69
2021/07/20 13:03:18;;;;;;;;;15.00;14.00;;;;;27.32;40.93;101421.91;6186644;23;45512;-70
2021/07/20 13:05:49;;;;;;;;;16.75;15.50;;;;;27.27;40.96;101414.09;6187236;23;45448;-70
2021/07/20 13:08:18;;;;;;;;;18.75;16.75;;;;;27.35;41.31;101422.50;6187553;23;45241;-70
2021/07/20 13:10:51;;;;;;;;;21.00;18.25;;;;;27.36;41.38;101420.59;6187194;23;45273;-70
2021/07/20 13:13:21;;;;;;;;;19.50;18.75;;;;;27.47;41.38;101438.81;6186582;23;45172;-70
2021/07/20 13:15:51;;;;;;;;;16.75;16.50;;;;;27.42;41.44;101420.03;6187057;23;45513;-70
2021/07/20 13:18:24;;;;;;;;;17.50;15.75;;;;;27.34;40.98;101414.41;6187015;23;45383;-70
2021/07/20 13:20:54;;;;;;;;;14.00;14.00;;;;;27.48;40.54;101424.97;6186272;23;45343;-70
2021/07/20 13:23:21;;;;;;;;;17.00;15.75;;;;;27.66;40.42;101460.75;6185085;23;45471;-70
2021/07/20 13:25:57;;;;;;;;;15.00;13.00;;;;;27.56;40.37;101446.16;6187042;23;45682;-70
2021/07/20 13:28:30;;;;;;;;;12.25;12.25;;;;;27.75;40.10;101460.88;6160022;23;46027;-70
2021/07/20 13:31:05;;;;;;;;;11.75;10.25;;;;;27.75;40.97;101455.41;6186880;23;45250;-70
2021/07/20 13:33:34;;;;;;;;;17.50;14.50;;;;;27.74;40.21;101454.53;6159359;23;45188;-70
2021/07/20 13:36:07;;;;;;;;;15.50;13.25;;;;;27.66;40.00;101433.31;6159241;23;46819;-70
2021/07/20 13:38:37;;;;;;;;;14.50;13.00;;;;;27.60;39.74;101416.56;6159802;23;45399;-71
2021/07/20 13:41:06;;;;;;;;;17.75;13.25;;;;;27.73;39.57;101437.22;6186654;23;45280;-70
2021/07/20 13:43:35;;;;;;;;;13.50;13.50;;;;;27.70;40.07;101429.28;6186490;23;45258;-70
2021/07/20 13:46:06;;;;;;;;;14.00;14.00;;;;;27.91;40.12;101451.06;6186773;23;45377;-70
2021/07/20 13:49:22;;;;;;;;;;;;;;;;;;;;;
2021/07/20 13:55:05;;;;;;;;;15.50;13.25;;;;;27.77;39.76;101406.78;6164147;23;45253;-70
2021/07/20 14:01:03;;;;;;;;;17.00;16.25;;;;;27.82;39.22;101418.16;6173737;23;45469;-70
2021/07/20 14:03:32;;;;;;;;;13.50;13.50;;;;;27.82;39.50;101410.78;6186484;23;45364;-71
2021/07/20 14:06:03;;;;;;;;;14.00;12.75;;;;;27.87;39.34;101418.59;6186645;23;45482;-71
2021/07/20 14:08:35;;;;;;;;;11.25;10.75;;;;;28.00;39.44;101430.16;6186261;23;47639;-70
2021/07/20 14:11:04;;;;;;;;;11.75;11.75;;;;;27.90;39.78;101413.69;6186918;23;45144;-70
2021/07/20 14:13:33;;;;;;;;;14.75;13.00;;;;;28.04;39.85;101428.84;6186337;23;45405;-71
2021/07/20 14:16:04;;;;;;;;;10.25;10.25;;;;;27.83;39.09;101397.94;6186290;23;45274;-70
2021/07/20 14:18:31;;;;;;;;;10.25;10.00;;;;;27.83;38.44;101390.59;6186952;23;45348;-71
2021/07/20 14:21:02;;;;;;;;;10.75;10.00;;;;;28.01;38.87;101420.03;6186836;23;45515;-70
2021/07/20 14:23:31;;;;;;;;;11.00;11.00;;;;;28.14;38.54;101437.06;6186695;23;45432;-70
2021/07/20 14:26:07;;;;;;;;;;;;;;;;;;;;;
2021/07/20 14:28:40;;;;;;;;;10.50;9.75;;;;;28.21;38.90;101431.84;6180436;23;76553;-71
2021/07/20 14:31:08;;;;;;;;;11.75;11.75;;;;;27.93;38.53;101393.31;6187003;23;45313;-70
2021/07/20 14:33:38;;;;;;;;;13.00;12.00;;;;;28.11;38.46;101409.03;6186617;23;45259;-70
2021/07/20 14:36:10;;;;;;;;;9.00;9.00;;;;;28.16;38.47;101412.22;6186248;23;45423;-71
2021/07/20 14:38:40;;;;;;;;;9.75;8.50;;;;;28.15;38.27;101404.97;6187282;23;46189;-70
2021/07/20 14:41:18;;;;;;;;;10.25;9.50;;;;;28.15;38.21;101394.00;6186633;23;45745;-70
2021/07/20 14:43:47;;;;;;;;;13.50;11.50;;;;;28.21;38.74;101390.66;6187079;23;45179;-70
2021/07/20 14:46:26;;;;;;;;;;;;;;;;;;;;;
2021/07/20 14:48:59;;;;;;;;;13.00;10.75;;;;;28.29;38.61;101399.03;6185435;23;75178;-70
2021/07/20 14:51:36;;;;;;;;;11.25;11.25;;;;;28.30;38.64;101398.00;6186886;23;45657;-71
2021/07/20 14:54:01;;;;;;;;;12.25;11.25;;;;;28.43;38.53;101415.03;6158941;23;45405;-70
2021/07/20 14:56:47;;;;;;;;;12.25;8.75;;;;;28.52;38.71;101428.84;6184072;23;45472;-70
2021/07/20 14:59:15;;;;;;;;;11.50;9.50;;;;;28.38;38.73;101413.72;6186010;23;47844;-70
2021/07/20 15:01:50;;;;;;;;;10.00;10.00;;;;;28.23;38.02;101380.41;6186498;23;45254;-71
2021/07/20 15:04:26;;;;;;;;;9.50;9.00;;;;;28.43;38.68;101414.13;6185309;23;45174;-70
2021/07/20 15:06:52;;;;;;;;;10.50;9.50;;;;;28.38;38.47;101402.75;6185837;23;45376;-70
2021/07/20 15:09:22;;;;;;;;;12.00;12.00;;;;;28.32;38.66;101385.00;6159616;23;46972;-70
2021/07/20 15:11:58;;;;;;;;;11.75;10.75;;;;;28.59;39.19;101424.53;6186285;23;45162;-70
2021/07/20 15:14:29;;;;;;;;;12.50;10.25;;;;;28.37;38.42;101393.66;6186900;23;45300;-70
2021/07/20 15:16:58;;;;;;;;;14.75;12.00;;;;;28.63;38.05;101426.81;6158883;23;45467;-70
2021/07/20 15:19:27;;;;;;;;;12.50;11.25;;;;;28.65;38.47;101429.38;6186051;23;45425;-70
2021/07/20 15:21:56;;;;;;;;;11.50;11.50;;;;;28.54;38.80;101404.84;6185754;23;45403;-70
2021/07/20 15:24:26;;;;;;;;;11.25;11.25;;;;;28.28;38.81;101361.59;6174258;23;45440;-70
2021/07/20 15:26:58;;;;;;;;;11.75;10.75;;;;;28.30;38.44;101365.06;6148863;23;45485;-70
2021/07/20 15:29:24;;;;;;;;;10.75;10.00;;;;;28.28;38.49;101357.00;6185400;23;45283;-70
2021/07/20 15:31:53;;;;;;;;;11.00;10.25;;;;;28.46;38.36;101389.97;6186202;23;45194;-70
2021/07/20 15:34:27;;;;;;;;;11.75;10.75;;;;;28.49;38.78;101383.34;6186865;23;45380;-70
2021/07/20 15:37:04;;;;;;;;;12.25;12.00;;;;;28.67;38.79;101412.75;6184979;23;45221;-70
2021/07/20 15:39:42;;;;;;;;;13.50;12.25;;;;;28.71;38.50;101417.81;6186467;23;45646;-70
2021/07/20 15:42:08;;;;;;;;;14.00;11.50;;;;;28.59;37.90;101397.91;6186359;23;45459;-70
2021/07/20 15:44:33;;;;;;;;;9.50;8.75;;;;;28.69;37.76;101414.34;6186812;23;45289;-71
2021/07/20 15:46:59;;;;;;;;;10.50;10.50;;;;;28.68;37.97;101420.00;6186587;23;45583;-70
2021/07/20 15:49:25;;;;;;;;;11.50;10.00;;;;;28.50;37.73;101392.44;6184131;23;46057;-70
2021/07/20 15:51:52;;;;;;;;;10.75;9.75;;;;;28.52;37.70;101396.78;6186608;23;45155;-70
2021/07/20 15:54:19;;;;;;;;;15.50;11.50;;;;;28.53;37.45;101394.88;6186345;23;45447;-70
2021/07/20 15:56:44;;;;;;;;;11.25;11.00;;;;;28.51;38.43;101391.44;6159290;23;45746;-70
2021/07/20 15:59:10;;;;;;;;;10.75;10.75;;;;;28.57;38.24;101402.69;6184374;23;47042;-70
2021/07/20 16:01:38;;;;;;;;;11.25;11.25;;;;;28.67;38.40;101415.50;6186409;23;45273;-70
2021/07/20 16:04:05;;;;;;;;;12.25;11.00;;;;;28.48;38.90;101381.59;6185575;23;45313;-70